createdAt,value
2023-04-22T00:00:54.758Z,100164.63
2023-04-22T00:03:24.711Z,100172.94
2023-04-22T00:05:51.487Z,100172.06
2023-04-22T00:08:18.002Z,100162.31
2023-04-22T00:10:44.416Z,100161.97
2023-04-22T00:13:10.823Z,100166.75
2023-04-22T00:15:37.526Z,100164.31
2023-04-22T00:18:04.213Z,100163.44
2023-04-22T00:20:32.831Z,100165.53
2023-04-22T00:22:59.259Z,100160.69
2023-04-22T00:25:25.914Z,100161.69
2023-04-22T00:27:52.280Z,100157.09
2023-04-22T00:30:18.650Z,100159.69
2023-04-22T00:32:45.055Z,100159.91
2023-04-22T00:35:11.530Z,100149.59
2023-04-22T00:37:37.922Z,100148.84
2023-04-22T00:40:04.668Z,100153.59
2023-04-22T00:42:31.349Z,100153.59
2023-04-22T00:44:57.894Z,100149.34
2023-04-22T00:47:26.963Z,100145.59
2023-04-22T00:49:54.354Z,100151.41
2023-04-22T00:52:20.752Z,100142.72
2023-04-22T00:54:48.094Z,100142.47
2023-04-22T00:57:14.642Z,100138.13
2023-04-22T00:59:42.163Z,100142.66
2023-04-22T01:02:08.797Z,100140.75
2023-04-22T01:04:35.609Z,100141.66
2023-04-22T01:07:02.070Z,100134.06
2023-04-22T01:09:28.862Z,100130.75
2023-04-22T01:11:56.175Z,100131.19
2023-04-22T01:14:22.683Z,100136.03
2023-04-22T01:16:50.444Z,100134.47
2023-04-22T01:19:16.882Z,100139.13
2023-04-22T01:21:45.000Z,100129.34
2023-04-22T01:24:11.390Z,100133.50
2023-04-22T01:26:38.038Z,100135.75
2023-04-22T01:29:05.500Z,100134.84
2023-04-22T01:31:32.028Z,100137.06
2023-04-22T01:33:58.844Z,100141.72
2023-04-22T01:36:25.617Z,100141.13
2023-04-22T01:38:52.015Z,100134.22
2023-04-22T01:41:18.684Z,100134.59
2023-04-22T01:43:45.405Z,100137.22
2023-04-22T01:46:11.788Z,100129.75
2023-04-22T01:48:38.389Z,100137.75
2023-04-22T01:51:05.357Z,100131.63
2023-04-22T01:53:31.839Z,100136.22
2023-04-22T01:55:58.299Z,100136.72
2023-04-22T01:58:24.672Z,100136.59
2023-04-22T02:00:51.068Z,100140.84
2023-04-22T02:03:17.542Z,100140.84
2023-04-22T02:05:44.002Z,100141.19
2023-04-22T02:08:10.759Z,100145.19
2023-04-22T02:10:37.252Z,100144.13
2023-04-22T02:13:03.624Z,100142.72
2023-04-22T02:15:30.471Z,100135.06
2023-04-22T02:17:56.862Z,100134.38
2023-04-22T02:20:23.304Z,100135.84
2023-04-22T02:22:50.637Z,100135.53
2023-04-22T02:25:17.044Z,100138.44
2023-04-22T02:27:43.420Z,100143.78
2023-04-22T02:30:09.997Z,100141.97
2023-04-22T02:32:38.674Z,100143.59
2023-04-22T02:35:05.418Z,100144.50
2023-04-22T02:37:31.801Z,100138.97
2023-04-22T02:39:58.168Z,100139.75
2023-04-22T02:42:24.585Z,100133.69
2023-04-22T02:44:50.946Z,100136.13
2023-04-22T02:47:17.317Z,100132.75
2023-04-22T02:49:43.681Z,100139.78
2023-04-22T02:52:10.104Z,100131.94
2023-04-22T02:54:36.474Z,100137.00
2023-04-22T02:57:02.978Z,100138.13
2023-04-22T02:59:30.790Z,100138.22
2023-04-22T03:01:57.231Z,100134.84
2023-04-22T03:04:25.733Z,100119.56
2023-04-22T03:06:52.507Z,100123.34
2023-04-22T03:09:18.916Z,100123.44
2023-04-22T03:11:45.462Z,100121.88
2023-04-22T03:14:11.835Z,100123.25
2023-04-22T03:16:38.264Z,100114.47
2023-04-22T03:19:04.722Z,100118.59
2023-04-22T03:21:32.279Z,100125.09
2023-04-22T03:23:59.019Z,100120.09
2023-04-22T03:26:25.374Z,100123.00
2023-04-22T03:28:51.757Z,100116.00
2023-04-22T03:31:18.137Z,100111.09
2023-04-22T03:33:44.507Z,100110.19
2023-04-22T03:36:10.887Z,100112.28
2023-04-22T03:38:37.255Z,100103.94
2023-04-22T03:41:03.628Z,100110.91
2023-04-22T03:43:30.021Z,100102.78
2023-04-22T03:45:56.494Z,100094.69
2023-04-22T03:48:22.908Z,100102.94
2023-04-22T03:50:49.335Z,100107.50
2023-04-22T03:53:15.719Z,100095.31
2023-04-22T03:55:42.113Z,100098.91
2023-04-22T03:58:08.488Z,100093.28
2023-04-22T04:00:34.868Z,100094.50
2023-04-22T04:03:01.389Z,100093.22
2023-04-22T04:05:28.015Z,100089.56
2023-04-22T04:07:54.579Z,100083.81
2023-04-22T04:10:20.945Z,100088.56
2023-04-22T04:12:47.344Z,100073.84
2023-04-22T04:15:13.730Z,100077.91
2023-04-22T04:17:40.182Z,100084.19
2023-04-22T04:20:07.312Z,100082.81
2023-04-22T04:22:34.955Z,100076.84
2023-04-22T04:25:01.706Z,100069.38
2023-04-22T04:27:28.065Z,100073.47
2023-04-22T04:29:55.778Z,100067.88
2023-04-22T04:32:22.600Z,100070.16
2023-04-22T04:34:49.032Z,100067.91
2023-04-22T04:37:16.723Z,100066.63
2023-04-22T04:39:43.466Z,100059.44
2023-04-22T04:42:09.860Z,100061.75
2023-04-22T04:44:36.385Z,100054.97
2023-04-22T04:47:04.052Z,100057.97
2023-04-22T04:49:30.627Z,100049.81
2023-04-22T04:52:01.754Z,100043.84
2023-04-22T04:54:28.334Z,100046.94
2023-04-22T04:56:54.747Z,100051.91
2023-04-22T04:59:21.105Z,100040.66
2023-04-22T05:01:47.565Z,100040.47
2023-04-22T05:04:14.315Z,100045.34
2023-04-22T05:06:40.875Z,100045.75
2023-04-22T05:09:07.822Z,100049.03
2023-04-22T05:11:34.245Z,100052.56
2023-04-22T05:14:00.832Z,100046.03
2023-04-22T05:16:27.283Z,100048.50
2023-04-22T05:18:53.724Z,100050.81
2023-04-22T05:21:20.357Z,100052.19
2023-04-22T05:23:46.747Z,100057.88
2023-04-22T05:26:13.103Z,100053.19
2023-04-22T05:28:39.479Z,100046.63
2023-04-22T05:31:06.796Z,100044.03
2023-04-22T05:33:33.197Z,100050.59
2023-04-22T05:35:59.584Z,100048.13
2023-04-22T05:38:25.990Z,100049.41
2023-04-22T05:40:52.367Z,100041.63
2023-04-22T05:43:18.819Z,100039.34
2023-04-22T05:45:45.232Z,100042.03
2023-04-22T05:48:11.685Z,100036.88
2023-04-22T05:50:38.138Z,100043.47
2023-04-22T05:53:04.522Z,100036.19
2023-04-22T05:55:31.029Z,100041.06
2023-04-22T05:57:57.415Z,100035.47
2023-04-22T06:00:23.775Z,100036.47
2023-04-22T06:02:50.332Z,100041.03
2023-04-22T06:05:16.893Z,100038.75
2023-04-22T06:07:43.394Z,100036.00
2023-04-22T06:10:10.230Z,100036.84
2023-04-22T06:12:36.629Z,100042.69
2023-04-22T06:15:03.968Z,100031.50
2023-04-22T06:17:30.446Z,100034.09
2023-04-22T06:19:56.863Z,100032.31
2023-04-22T06:22:23.249Z,100030.53
2023-04-22T06:24:49.610Z,100030.91
2023-04-22T06:27:16.000Z,100025.75
2023-04-22T06:29:43.450Z,100030.09
2023-04-22T06:32:09.843Z,100032.06
2023-04-22T06:34:38.508Z,100029.66
2023-04-22T06:37:04.933Z,100027.88
2023-04-22T06:39:31.315Z,100032.44
2023-04-22T06:41:57.720Z,100021.44
2023-04-22T06:44:25.392Z,100025.19
2023-04-22T06:46:51.829Z,100019.25
2023-04-22T06:49:18.269Z,100021.84
2023-04-22T06:51:44.639Z,100013.63
2023-04-22T06:54:11.025Z,100016.75
2023-04-22T06:56:37.444Z,100024.09
2023-04-22T06:59:03.847Z,100020.19
2023-04-22T07:01:30.268Z,100014.56
2023-04-22T07:03:56.816Z,100020.84
2023-04-22T07:06:23.339Z,100021.34
2023-04-22T07:08:49.804Z,100010.94
2023-04-22T07:11:16.227Z,100009.88
2023-04-22T07:13:42.605Z,99999.50
2023-04-22T07:16:09.032Z,100006.88
2023-04-22T07:18:36.016Z,100004.94
2023-04-22T07:21:02.444Z,99998.06
2023-04-22T07:23:28.846Z,100005.69
2023-04-22T07:25:55.301Z,100000.38
2023-04-22T07:28:21.717Z,99999.19
2023-04-22T07:30:48.536Z,99995.91
2023-04-22T07:33:14.908Z,99997.09
2023-04-22T07:35:41.297Z,99990.19
2023-04-22T07:38:09.283Z,100001.13
2023-04-22T07:40:36.264Z,99997.09
2023-04-22T07:43:02.684Z,99989.94
2023-04-22T07:45:29.080Z,99989.41
2023-04-22T07:47:55.737Z,99982.97
2023-04-22T07:50:22.364Z,99979.66
2023-04-22T07:52:48.749Z,99978.69
2023-04-22T07:55:15.227Z,99978.22
2023-04-22T07:57:41.677Z,99971.56
2023-04-22T08:00:10.869Z,99963.22
2023-04-22T08:02:37.416Z,99963.41
2023-04-22T08:05:04.169Z,99956.50
2023-04-22T08:07:33.555Z,99954.06
2023-04-22T08:10:00.512Z,99945.63
2023-04-22T08:12:26.927Z,99942.16
2023-04-22T08:14:54.058Z,99926.44
2023-04-22T08:17:21.915Z,99923.78
2023-04-22T08:19:49.027Z,99922.25
2023-04-22T08:22:16.095Z,99920.38
2023-04-22T08:24:42.478Z,99921.78
2023-04-22T08:27:08.872Z,99916.41
2023-04-22T08:29:35.367Z,99911.84
2023-04-22T08:32:03.024Z,99919.31
2023-04-22T08:34:29.446Z,99907.41
2023-04-22T08:36:55.837Z,99918.94
2023-04-22T08:39:22.218Z,99913.25
2023-04-22T08:41:50.465Z,99909.25
2023-04-22T08:44:16.833Z,99907.22
2023-04-22T08:46:47.004Z,99906.53
2023-04-22T08:49:16.738Z,99918.28
2023-04-22T08:51:44.341Z,99920.84
2023-04-22T08:54:11.809Z,99908.91
2023-04-22T08:56:42.355Z,99908.53
2023-04-22T08:59:10.345Z,99895.81
2023-04-22T09:01:38.387Z,99899.06
2023-04-22T09:04:05.187Z,99906.41
2023-04-22T09:06:32.798Z,99900.66
2023-04-22T09:09:00.561Z,99897.88
2023-04-22T09:11:28.298Z,99893.31
2023-04-22T09:13:54.769Z,99886.09
2023-04-22T09:16:21.257Z,99884.09
2023-04-22T09:18:47.702Z,99881.88
2023-04-22T09:21:14.150Z,99887.31
2023-04-22T09:24:02.392Z,99879.81
2023-04-22T09:26:28.786Z,99871.88
2023-04-22T09:28:58.281Z,99881.84
2023-04-22T09:31:25.539Z,99872.13
2023-04-22T09:33:53.417Z,99877.06
2023-04-22T09:36:28.253Z,99870.19
2023-04-22T09:38:59.413Z,99855.56
2023-04-22T09:41:29.273Z,99861.28
2023-04-22T09:44:00.672Z,99859.59
2023-04-22T09:46:28.717Z,99856.53
2023-04-22T09:48:56.151Z,99849.50
2023-04-22T09:51:22.841Z,99844.78
2023-04-22T09:53:59.557Z,99843.16
2023-04-22T09:56:49.280Z,99837.28
2023-04-22T09:59:22.817Z,99841.44
2023-04-22T10:01:50.613Z,99836.25
2023-04-22T10:04:17.972Z,99826.44
2023-04-22T10:06:44.386Z,99839.59
2023-04-22T10:09:12.196Z,99824.97
2023-04-22T10:11:40.524Z,99836.31
2023-04-22T10:14:10.115Z,99821.81
2023-04-22T10:16:38.573Z,99814.03
2023-04-22T10:19:06.579Z,99808.84
2023-04-22T10:21:33.524Z,99813.25
2023-04-22T10:24:00.833Z,99817.59
2023-04-22T10:26:43.663Z,99803.00
2023-04-22T10:29:16.684Z,99811.13
2023-04-22T10:31:44.909Z,99808.06
2023-04-22T10:34:12.959Z,99811.94
2023-04-22T10:37:01.947Z,99808.56
2023-04-22T10:39:29.137Z,99806.19
2023-04-22T10:42:11.073Z,99811.22
2023-04-22T10:44:54.234Z,99811.91
2023-04-22T10:47:29.114Z,99815.59
2023-04-22T10:50:13.788Z,99807.06
2023-04-22T10:52:41.583Z,99799.63
2023-04-22T10:55:09.576Z,99802.72
2023-04-22T10:57:41.653Z,99789.28
2023-04-22T11:00:35.380Z,99787.91
2023-04-22T11:03:05.226Z,99793.41
2023-04-22T11:05:32.559Z,99777.28
2023-04-22T11:08:04.165Z,99773.00
2023-04-22T11:10:32.637Z,99773.19
2023-04-22T11:13:01.306Z,99775.69
2023-04-22T11:15:29.613Z,99753.88
2023-04-22T11:17:56.363Z,99760.94
2023-04-22T11:20:24.140Z,99759.16
2023-04-22T11:22:55.430Z,99759.19
2023-04-22T11:25:23.353Z,99765.38
2023-04-22T11:27:49.811Z,99756.53
2023-04-22T11:30:21.075Z,99772.13
2023-04-22T11:32:52.293Z,99770.22
2023-04-22T11:35:24.018Z,99773.56
2023-04-22T11:38:01.210Z,99783.28
2023-04-22T11:40:38.854Z,99783.06
2023-04-22T11:43:08.279Z,99790.69
2023-04-22T11:45:36.326Z,99789.19
2023-04-22T11:48:05.155Z,99786.13
2023-04-22T11:50:34.304Z,99782.56
2023-04-22T11:53:12.521Z,99797.94
2023-04-22T11:55:39.869Z,99795.63
2023-04-22T11:58:09.628Z,99788.63
2023-04-22T12:03:16.950Z,99790.59
2023-04-22T12:05:45.114Z,99784.72
2023-04-22T12:08:13.126Z,99796.66
2023-04-22T12:10:46.618Z,99793.69
2023-04-22T12:13:30.936Z,99796.47
2023-04-22T12:15:59.259Z,99793.25
2023-04-22T12:18:36.210Z,99792.66
2023-04-22T12:21:13.180Z,99789.75
2023-04-22T12:23:52.113Z,99797.34
2023-04-22T12:26:20.791Z,99785.31
2023-04-22T12:28:48.359Z,99783.63
2023-04-22T12:31:15.408Z,99785.06
2023-04-22T12:33:42.497Z,99788.75
2023-04-22T12:36:09.409Z,99790.06
2023-04-22T12:38:36.511Z,99784.03
2023-04-22T12:41:04.246Z,99779.91
2023-04-22T12:43:32.197Z,99789.28
2023-04-22T12:45:58.996Z,99788.59
2023-04-22T12:48:25.441Z,99794.06
2023-04-22T12:50:51.819Z,99789.00
2023-04-22T12:53:18.238Z,99786.56
2023-04-22T12:55:46.100Z,99795.22
2023-04-22T12:58:12.706Z,99792.16
2023-04-22T13:00:39.075Z,99798.16
2023-04-22T13:03:05.699Z,99793.16
2023-04-22T13:05:32.404Z,99791.03
2023-04-22T13:08:06.386Z,99796.97
2023-04-22T13:10:33.605Z,99793.66
2023-04-22T13:13:13.542Z,99783.47
2023-04-22T13:15:43.133Z,99783.59
2023-04-22T13:18:09.530Z,99783.75
2023-04-22T13:20:36.052Z,99791.81
2023-04-22T13:23:02.539Z,99790.50
2023-04-22T13:25:28.939Z,99778.94
2023-04-22T13:27:55.319Z,99791.03
2023-04-22T13:30:21.692Z,99787.81
2023-04-22T13:32:48.126Z,99778.16
2023-04-22T13:35:14.592Z,99777.59
2023-04-22T13:37:40.996Z,99765.78
2023-04-22T13:40:08.248Z,99756.53
2023-04-22T13:42:34.725Z,99740.13
2023-04-22T13:45:01.149Z,99726.22
2023-04-22T13:47:27.577Z,99727.94
2023-04-22T13:49:53.982Z,99740.22
2023-04-22T13:52:20.661Z,99743.28
2023-04-22T13:54:47.076Z,99745.09
2023-04-22T13:57:13.494Z,99748.63
2023-04-22T13:59:41.693Z,99740.66
2023-04-22T14:02:08.374Z,99736.28
2023-04-22T14:04:34.850Z,99759.91
2023-04-22T14:07:01.846Z,99750.88
2023-04-22T14:09:28.224Z,99749.09
2023-04-22T14:11:54.894Z,99763.59
2023-04-22T14:14:21.283Z,99751.75
2023-04-22T14:16:48.487Z,99754.69
2023-04-22T14:19:14.960Z,99754.66
2023-04-22T14:21:41.753Z,99766.97
2023-04-22T14:24:08.140Z,99766.91
2023-04-22T14:26:34.612Z,99769.38
2023-04-22T14:29:01.049Z,99761.97
2023-04-22T14:31:27.555Z,99773.13
2023-04-22T14:33:54.084Z,99763.19
2023-04-22T14:36:20.477Z,99767.66
2023-04-22T14:38:46.982Z,99780.78
2023-04-22T14:41:13.463Z,99772.50
2023-04-22T14:43:39.916Z,99781.78
2023-04-22T14:46:06.412Z,99783.25
2023-04-22T14:48:35.264Z,99793.59
2023-04-22T14:51:01.913Z,99804.38
2023-04-22T14:53:28.403Z,99814.31
2023-04-22T14:55:55.749Z,99816.72
2023-04-22T14:58:22.768Z,99838.00
2023-04-22T15:00:49.963Z,99856.25
2023-04-22T15:03:16.531Z,99867.06
2023-04-22T15:05:43.365Z,99870.19
2023-04-22T15:08:09.783Z,99893.41
2023-04-22T15:10:36.370Z,99894.34
2023-04-22T15:13:02.789Z,99887.97
2023-04-22T15:15:29.199Z,99901.22
2023-04-22T15:17:55.643Z,99891.44
2023-04-22T15:20:22.049Z,99897.06
2023-04-22T15:22:48.819Z,99876.44
2023-04-22T15:25:17.437Z,99886.94
2023-04-22T15:27:44.528Z,99882.78
2023-04-22T15:30:11.171Z,99878.00
2023-04-22T15:32:39.039Z,99884.31
2023-04-22T15:35:07.309Z,99882.63
2023-04-22T15:37:33.748Z,99874.97
2023-04-22T15:40:00.265Z,99872.34
2023-04-22T15:42:26.686Z,99878.97
2023-04-22T15:44:53.065Z,99875.38
2023-04-22T15:47:19.568Z,99872.72
2023-04-22T15:49:46.015Z,99872.75
2023-04-22T15:52:12.461Z,99864.53
2023-04-22T15:54:38.868Z,99869.75
2023-04-22T15:57:05.284Z,99866.09
2023-04-22T15:59:31.678Z,99871.63
2023-04-22T16:01:58.135Z,99859.66
2023-04-22T16:04:24.989Z,99870.22
2023-04-22T16:06:51.673Z,99868.53
2023-04-22T16:09:18.177Z,99867.41
2023-04-22T16:11:44.568Z,99873.19
2023-04-22T16:14:12.194Z,99867.66
2023-04-22T16:16:39.883Z,99864.50
2023-04-22T16:19:06.493Z,99861.81
2023-04-22T16:21:32.852Z,99847.72
2023-04-22T16:23:59.249Z,99846.22
2023-04-22T16:26:25.688Z,99854.09
2023-04-22T16:28:52.111Z,99858.25
2023-04-22T16:31:22.676Z,99852.13
2023-04-22T16:33:50.298Z,99851.44
2023-04-22T16:36:16.720Z,99856.56
2023-04-22T16:38:43.273Z,99854.75
2023-04-22T16:41:11.392Z,99852.16
2023-04-22T16:43:40.725Z,99855.97
2023-04-22T16:46:07.631Z,99845.66
2023-04-22T16:48:34.186Z,99846.66
2023-04-22T16:51:00.618Z,99841.69
2023-04-22T16:53:27.075Z,99846.78
2023-04-22T16:55:53.441Z,99842.84
2023-04-22T16:58:19.785Z,99844.78
2023-04-22T17:00:47.754Z,99843.41
2023-04-22T17:03:14.428Z,99849.97
2023-04-22T17:05:40.975Z,99846.66
2023-04-22T17:08:07.710Z,99849.91
2023-04-22T17:10:34.734Z,99851.41
2023-04-22T17:13:01.285Z,99852.31
2023-04-22T17:15:27.681Z,99853.44
2023-04-22T17:17:54.091Z,99855.09
2023-04-22T17:20:20.547Z,99852.66
2023-04-22T17:22:46.991Z,99852.88
2023-04-22T17:25:13.364Z,99862.44
2023-04-22T17:27:39.753Z,99857.38
2023-04-22T17:30:06.776Z,99858.81
2023-04-22T17:32:33.199Z,99862.53
2023-04-22T17:34:59.679Z,99872.81
2023-04-22T17:37:26.065Z,99866.88
2023-04-22T17:39:52.679Z,99864.81
2023-04-22T17:42:19.195Z,99869.97
2023-04-22T17:44:45.698Z,99864.25
2023-04-22T17:47:12.136Z,99869.13
2023-04-22T17:49:38.937Z,99872.03
2023-04-22T17:52:05.608Z,99872.38
2023-04-22T17:54:32.022Z,99878.53
2023-04-22T17:56:58.377Z,99878.84
2023-04-22T17:59:24.772Z,99879.34
2023-04-22T18:01:51.448Z,99891.13
2023-04-22T18:04:18.056Z,99898.56
2023-04-22T18:06:44.596Z,99897.06
2023-04-22T18:09:11.404Z,99902.84
2023-04-22T18:11:37.795Z,99900.94
2023-04-22T18:14:04.205Z,99907.94
2023-04-22T18:16:30.657Z,99909.91
2023-04-22T18:18:58.946Z,99908.97
2023-04-22T18:21:25.532Z,99913.88
2023-04-22T18:23:53.060Z,99911.69
2023-04-22T18:26:19.452Z,99920.06
2023-04-22T18:28:45.870Z,99924.28
2023-04-22T18:31:12.308Z,99933.69
2023-04-22T18:33:38.687Z,99932.91
2023-04-22T18:36:05.435Z,99932.88
2023-04-22T18:38:31.887Z,99945.38
2023-04-22T18:40:58.606Z,99940.47
2023-04-22T18:43:24.992Z,99943.84
2023-04-22T18:45:51.440Z,99942.31
2023-04-22T18:48:19.122Z,99947.59
2023-04-22T18:50:45.680Z,99939.38
2023-04-22T18:53:12.161Z,99943.25
2023-04-22T18:55:38.706Z,99952.00
2023-04-22T18:58:05.172Z,99944.97
2023-04-22T19:00:31.644Z,99958.00
2023-04-22T19:02:58.158Z,99960.31
2023-04-22T19:05:24.874Z,99952.09
2023-04-22T19:07:51.852Z,99955.78
2023-04-22T19:10:18.258Z,99953.59
2023-04-22T19:12:44.622Z,99953.09
2023-04-22T19:15:11.279Z,99958.91
2023-04-22T19:17:38.547Z,99964.91
2023-04-22T19:20:06.153Z,99949.38
2023-04-22T19:22:32.559Z,99955.81
2023-04-22T19:24:58.979Z,99948.03
2023-04-22T19:27:25.678Z,99951.34
2023-04-22T19:29:53.304Z,99951.13
2023-04-22T19:32:20.991Z,99953.09
2023-04-22T19:34:47.692Z,99947.03
2023-04-22T19:37:14.166Z,99957.66
2023-04-22T19:39:40.697Z,99949.66
2023-04-22T19:42:07.231Z,99949.50
2023-04-22T19:44:33.613Z,99946.78
2023-04-22T19:47:00.833Z,99951.13
2023-04-22T19:49:27.523Z,99950.09
2023-04-22T19:51:54.595Z,99938.94
2023-04-22T19:54:21.805Z,99941.31
2023-04-22T19:56:48.977Z,99935.25
2023-04-22T19:59:15.987Z,99945.13
2023-04-22T20:01:42.575Z,99937.63
2023-04-22T20:04:09.280Z,99939.47
2023-04-22T20:06:35.929Z,99930.75
2023-04-22T20:09:05.138Z,99929.97
2023-04-22T20:11:32.336Z,99931.59
2023-04-22T20:13:59.180Z,99931.72
2023-04-22T20:16:26.868Z,99925.72
2023-04-22T20:18:53.596Z,99920.75
2023-04-22T20:21:20.061Z,99918.28
2023-04-22T20:23:47.832Z,99916.38
2023-04-22T20:26:18.584Z,99921.78
2023-04-22T20:28:47.669Z,99923.63
2023-04-22T20:31:16.497Z,99930.28
2023-04-22T20:33:42.924Z,99931.06
2023-04-22T20:36:09.814Z,99956.03
2023-04-22T20:38:39.686Z,99965.72
2023-04-22T20:41:06.999Z,99981.50
2023-04-22T20:43:33.515Z,99984.03
2023-04-22T20:45:59.994Z,99993.16
2023-04-22T20:48:26.565Z,99995.16
2023-04-22T20:50:52.925Z,100000.03
2023-04-22T20:53:19.422Z,100001.91
2023-04-22T20:55:45.992Z,100001.16
2023-04-22T20:58:12.604Z,100001.63
2023-04-22T21:00:38.942Z,99999.84
2023-04-22T21:03:08.554Z,100008.50
2023-04-22T21:05:42.250Z,100008.44
2023-04-22T21:08:23.071Z,100004.78
2023-04-22T21:10:51.047Z,100009.72
2023-04-22T21:13:18.017Z,100014.19
2023-04-22T21:15:55.667Z,100010.31
2023-04-22T21:18:24.441Z,100016.97
2023-04-22T21:20:51.696Z,100004.78
2023-04-22T21:23:19.993Z,100012.19
2023-04-22T21:25:48.476Z,100013.91
2023-04-22T21:28:15.857Z,100014.56
2023-04-22T21:30:42.473Z,100007.53
2023-04-22T21:33:08.841Z,100004.91
2023-04-22T21:35:35.546Z,100017.25
2023-04-22T21:38:02.753Z,100023.28
2023-04-22T21:40:29.146Z,100028.97
2023-04-22T21:42:55.629Z,100022.28
2023-04-22T21:45:21.997Z,100029.94
2023-04-22T21:47:48.404Z,100024.50
2023-04-22T21:50:14.824Z,100024.22
2023-04-22T21:52:41.211Z,100020.84
2023-04-22T21:55:07.942Z,100027.09
2023-04-22T21:57:34.364Z,100025.38
2023-04-22T22:00:01.074Z,100023.69
2023-04-22T22:02:27.598Z,100021.97
2023-04-22T22:04:54.157Z,100026.41
2023-04-22T22:07:21.972Z,100027.31
2023-04-22T22:09:48.343Z,100038.53
2023-04-22T22:12:15.495Z,100032.44
2023-04-22T22:14:43.381Z,100034.78
2023-04-22T22:17:09.829Z,100040.16
2023-04-22T22:19:36.329Z,100040.22
2023-04-22T22:22:02.736Z,100042.88
2023-04-22T22:24:29.121Z,100052.47
2023-04-22T22:26:57.181Z,100049.38
2023-04-22T22:29:23.549Z,100046.88
2023-04-22T22:31:49.969Z,100049.75
2023-04-22T22:34:16.350Z,100060.66
2023-04-22T22:36:42.725Z,100062.19
2023-04-22T22:39:11.783Z,100062.28
2023-04-22T22:41:38.190Z,100069.69
2023-04-22T22:44:04.584Z,100069.56
2023-04-22T22:46:31.004Z,100070.53
2023-04-22T22:48:59.095Z,100073.88
2023-04-22T22:51:25.503Z,100075.81
2023-04-22T22:53:51.961Z,100081.78
2023-04-22T22:56:20.740Z,100086.63
2023-04-22T22:58:48.148Z,100091.53
2023-04-22T23:01:14.772Z,100085.25
2023-04-22T23:03:41.415Z,100084.72
2023-04-22T23:06:07.920Z,100089.09
2023-04-22T23:08:34.290Z,100084.28
2023-04-22T23:11:01.921Z,100080.06
2023-04-22T23:13:28.299Z,100086.06
2023-04-22T23:15:54.722Z,100091.88
2023-04-22T23:18:21.240Z,100089.00
2023-04-22T23:20:47.950Z,100083.75
2023-04-22T23:23:18.313Z,100076.34
2023-04-22T23:25:46.425Z,100084.34
2023-04-22T23:28:13.169Z,100092.28
2023-04-22T23:30:40.106Z,100092.03
2023-04-22T23:33:07.597Z,100091.34
2023-04-22T23:35:36.277Z,100091.34
2023-04-22T23:38:03.988Z,100097.13
2023-04-22T23:40:30.354Z,100084.19
2023-04-22T23:42:56.713Z,100093.66
2023-04-22T23:45:23.168Z,100088.16
2023-04-22T23:47:49.810Z,100091.19
2023-04-22T23:50:18.892Z,100080.69
2023-04-22T23:52:45.324Z,100084.91
2023-04-22T23:55:13.806Z,100078.53
2023-04-22T23:57:40.452Z,100078.09
